Terminal Aerodrome Forecast
Issued by NWS Twin Cities, MN

Home | Current Version | Previous Version | Graphics & Text | Print | Product List | Glossary On
Versions: 1 2 3 4 5 6 7 8 9 10 11 12 13 14 15 16 17 18 19
000
FTUS43 KMPX 300500
TAFSTC
TAF
KSTC 300520Z 3006/3106 32003KT 4SM BR SCT005 BKN025
      TEMPO 3006/3008 6SM BR OVC040
     FM300800 34004KT 3SM BR OVC005
     FM301600 35005KT P6SM BKN010
     FM301700 VRB03KT P6SM BKN020
     FM302000 VRB03KT P6SM FEW020=

USA.gov is the U.S. government's official web portal to all federal, state and local government web resources and services.